Kezdőlap
METAR-TAF:

METAR-TAF

Repülőterek :

Pécs, Magyarország

földrajzi szélesség: 46-06N, földrajzi hosszúság: 018-14E, magasság: 201 m

Jelenlegi meteorológiai megfigyelések

A jelentés 2 órával és 27 perccel ezelõtt készült, 17:45 UTC
Dél-délnyugati szél 4 kt
Hőmérséklet 6°C
Páratartalom 56%
Légköri nyomás 1028 hPa
Látótávolság 10 km, vagy több
felhőtlen 1500 m magasságban, és nincs gomolyfelhõ

METAR: LHPP 221745Z 20004KT CAVOK 06/M02 Q1028

Idő: 21:12 (20:12 UTC)

Előrejelzés

A jelentés 5 órával és 57 perccel ezelõtt készült, 14:15 UTC
Az előrejelzés 22-én 15 óra UTC és 22-én 24 óra UTC között érvényes
Nyugat-délnyugati szél 6 kt
Látótávolság 10 km, vagy több
felhőtlen 1500 m magasságban, és nincs gomolyfelhõ

TAF: LHPP 221415Z 2215/2224 24006KT CAVOK

Meteorológiai megfigyelések és előrejelzések több, mint 4000 repülőtéren (METAR és TAF jelentéseket).

A térképen piros és sárga pontok jelzik az elérhető meteorológiai állomásokat.

Mozgassa az egeret a pont fölött, hogy megjelenjen az állomás neve.

Azután kattintson az időjárási megfigyelések és előrejelzések megtekintéséhez.

A térkép megváltoztatása: kattintson a fekete keresztel jelölt zöld gombra ráközelítéshez, a vonallal jelölt zöld gombra távolításhoz, vagy a zöld nyilakra a szomszédos térképek eléréséhez.


METAR-TAF: